Create Custom Reports and Graphics: Custom Report

West Shandon (SLO-20)

Current Conditions

4/21/24 6:45 AM (-07:00)
Updated Every 15 Minutes
Temp 5ft 44.0 °F   2.8
Temp 30ft 45.2 °F   1.7
Inversion 1.3 °F   1.2
RH 91 %   2
Dew Pt 41.5 °F   2.3
Wet Bulb 43.1 °F   2.6
Wind Spd 0.2 mph   0.2
Wind Gust 1.7 mph   1.7
Solar Rad 43 W/m2   24
BatVolt 12.5 V   0.0

Today & Yesterday

Creston Rd (SLO-2_

4/21/24 6:45 AM (-07:00)
Updated Every 15 Minutes
Daily Max Temp 54.2 °F   6.8
Time of Max Temp 0101
Daily Min Temp 41.6 °F   0.0
Time of Min Temp 0607
Daily Max Wind 3.4 mph   3.4
Time of Max Wind 0627
Daily Rain 0.00 In
Yest MaxT 79.6 °F
Yest MinT 41.6 °F
Yest MaxGst 12.5 mph
Yest Precip 0.00 In

Last 365 Observations

West Shandon (SLO-20)

Daily Data | America/Los_Angeles
as of 4/21/24 6:49 AM PDT
Date Daily Max Temp (°F) Time of Max Temp Daily Min Temp (°F) Time of Min Temp Daily Rain (In) Month Precip (In) Season Precip (In) Daily ETo (in) 7 Day ETo (in) Daily Solar Rad (Cal/cm2) Daily Max Wind (mph) Time of Max Wind Dew Pt (°F) Max RH (%) Min RH (%) Daily Max Temp 5ft (°F) Daily Min Temp 5ft (°F) Daily Max Temp 30ft (°F) Daily Min Temp 30ft (°F) Max Inversion (°F) Max Inversion Time Min Inversion (°F) Min Inversion Time Hrs 70-85F (hrs) Hrs > 95F (hrs) Powdery Mildew Stress (pts) GDDs (DL) Seas GDDs (DL) Hrs <= 32F (hrs) Hrs <= 28F (hrs) Chilling <=45F (hrs) Chilling <=45F Seas (hrs) Storm Total (In) Max 1 Min Rain (In) Max 1 Min Rain Time Max 15 Min Rain (In) Max 15 Min Precip Time Max 60 Min Rain (In) Max 60 Min Rain Time MinBV Day (V)
4/20/24 81.4 1650 40.4 0612 0.00 1.54 11.33 0.176 1.07 596 12.1 1143 50.2 93 38 81.4 40.4 81.0 42.4 8.3 2228 -4.6 1130 6.85 0.00 30 11.0 139 0.0 0.0 4.9 - - - - - - - - 12.4
4/19/24 75.0 1630 45.0 0328 0.00 1.54 11.33 0.142 0.94 502 11.1 1600 49.9 91 47 75.0 45.0 74.4 46.2 6.0 2135 -4.8 1224 4.67 0.00 40 7.3 128 0.0 0.0 0.0 - - - - - - - - 12.4
4/18/24 82.1 1350 45.9 0618 0.00 1.54 11.33 0.172 0.92 553 14.8 1535 52.8 89 32 82.1 45.9 82.1 48.4 6.6 2106 -3.5 1447 8.07 0.00 20 12.0 120 0.0 0.0 0.0 - - - - - - - - 12.4
4/17/24 82.7 1721 44.2 0447 0.00 1.54 11.33 0.175 0.95 573 12.1 1106 52.6 96 39 82.7 44.2 83.5 46.2 8.6 2121 -4.3 1209 9.08 0.00 0 13.6 109 0.0 0.0 0.3 - - - - - - - - 12.4
4/16/24 75.3 1631 37.3 0641 0.00 1.54 11.33 0.172 0.96 611 17.2 1059 48.5 92 47 75.3 37.3 75.2 38.6 6.8 2132 -4.6 1253 5.04 0.00 0 9.6 95 0.0 0.0 5.7 - - - - - - - - 12.4
4/15/24 66.6 1529 38.7 0231 0.00 1.54 11.33 0.129 0.95 481 13.2 1535 45.1 93 50 66.6 38.7 66.0 40.2 6.4 2232 -4.8 1125 0.00 0.00 0 4.9 85 0.0 0.0 7.4 - 1.35 - - - - - - 12.5
4/14/24 63.2 1753 42.7 0037 0.88 1.54 11.33 0.108 0.96 430 17.5 1452 45.4 91 49 63.2 42.7 63.2 44.1 4.5 2225 -4.5 1526 0.00 0.00 10 3.3 80 0.0 0.0 3.3 - 1.35 0.01 1051 0.09 0639 0.27 0716 12.4
4/13/24 57.1 0826 41.3 1432 0.47 0.66 10.45 0.040 0.97 153 24.2 1035 44.1 91 65 57.1 41.3 56.1 40.8 1.7 0534 -3.0 0826 0.00 0.00 20 1.5 77 0.0 0.0 9.8 - 0.47 0.01 1539 0.04 1404 0.12 1208 12.4
4/12/24 65.0 1128 41.2 0624 0.00 0.19 9.98 0.126 1.06 530 19.8 1513 48.6 89 67 65.0 41.2 64.1 43.7 5.9 0623 -6.7 1355 0.00 0.00 30 5.1 76 0.0 0.0 2.6 - - - - - - - - 12.4
4/11/24 87.9 1742 42.8 0424 0.00 0.19 9.98 0.198 1.02 602 12.5 1300 49.6 89 21 87.9 42.8 87.7 44.4 8.4 2022 -4.0 1216 5.82 0.00 40 14.3 70 0.0 0.0 4.0 - - - - - - - - 12.4
4/10/24 83.8 1725 39.8 0656 0.00 0.19 9.98 0.187 0.89 599 12.1 1126 46.3 89 26 83.8 39.8 84.0 41.9 11.9 2117 -3.3 1416 8.90 0.00 20 12.7 56 0.0 0.0 6.0 - - - - - - - - 12.4
4/9/24 78.9 1818 35.3 0449 0.00 0.19 9.98 0.168 0.86 596 11.5 1405 43.1 91 30 78.9 35.3 80.0 37.7 10.3 2208 -3.7 1133 7.15 0.00 0 9.8 43 0.0 0.0 7.1 - - - - - - - - 12.4
4/8/24 69.6 1749 34.6 0355 0.00 0.19 9.98 0.140 0.86 523 11.5 1627 40.3 92 31 69.6 34.6 70.5 36.0 10.3 2308 -4.0 1514 0.00 0.00 0 5.2 34 0.0 0.0 11.3 - - - - - - - - 12.4
4/7/24 64.4 1441 32.7 0647 0.00 0.19 9.98 0.110 0.86 444 12.5 1345 39.4 94 42 64.4 32.7 64.6 33.7 4.7 2126 -5.5 1422 0.00 0.00 0 3.2 28 0.0 0.0 10.0 - - - - - - - - 12.3
4/6/24 63.6 1641 30.2 0633 0.00 0.19 9.98 0.134 0.87 568 9.5 1516 36.5 95 35 63.6 30.2 64.1 31.5 7.7 2216 -5.2 1334 0.00 0.00 0 2.9 25 1.7 0.0 11.8 - 0.19 - - - - - - 12.3
4/5/24 52.5 1521 31.6 0047 0.06 0.19 9.98 0.081 0.82 411 32.3 1524 38.0 93 61 52.5 31.6 51.5 33.2 6.3 2117 -5.8 1342 0.00 0.00 0 0.1 22 0.1 0.0 14.5 - 0.19 0.01 1537 0.03 1545 0.07 0125 12.4
4/4/24 54.0 1147 40.4 2054 0.13 0.13 9.92 0.068 0.83 339 31.3 1537 42.3 92 62 54.0 40.4 52.9 40.8 1.6 0758 -3.2 1610 0.00 0.00 10 0.1 22 0.0 0.0 7.7 - 0.13 0.01 0053 0.03 1223 0.05 1308 12.5
4/3/24 73.0 1406 37.2 0640 0.00 0.00 9.79 0.164 0.88 583 18.2 1442 45.6 92 37 73.0 37.2 72.6 38.2 5.7 0448 -3.3 1259 2.75 0.00 20 6.6 22 0.0 0.0 7.5 - - - - - - - - 12.4
4/2/24 76.2 1442 38.8 0649 0.00 0.00 9.79 0.166 0.87 578 15.2 1513 46.6 92 38 76.2 38.8 77.3 41.0 9.3 2020 -2.8 1417 6.31 0.00 0 9.1 16 0.0 0.0 6.7 - - - - - - - - 12.4
4/1/24 71.9 1725 41.8 0500 0.00 0.00 9.79 0.135 0.84 521 14.2 1355 46.3 92 36 71.9 41.8 73.2 43.1 7.7 2049 -3.2 1058 1.20 0.00 0 6.5 6 0.0 0.0 4.5 - 0.25 - - - - - - 12.4
3/31/24 63.8 1504 37.5 0713 0.25 1.47 9.79 0.124 0.83 488 15.8 1646 44.1 92 50 63.8 37.5 65.8 38.2 5.6 0428 -5.5 1306 0.00 0.00 0 3.7 - 0.0 0.0 6.7 1,186 0.45 0.01 2158 0.07 2049 0.17 2131 12.4
3/30/24 61.7 1402 41.2 0249 0.09 1.22 9.54 0.088 0.81 354 25.6 1404 43.9 92 52 61.7 41.2 60.4 43.3 4.3 0256 -4.9 1246 0.00 0.00 0 1.8 - 0.0 0.0 6.4 1,180 0.45 0.01 1732 0.02 1735 0.07 0104 12.4
3/29/24 59.4 1519 37.7 0201 0.36 1.13 9.45 0.084 0.82 305 25.9 1613 43.2 92 55 59.4 37.7 58.2 39.4 4.7 0159 -5.0 1426 0.00 0.00 0 2.0 - 0.0 0.0 7.1 1,173 0.36 0.01 0037 0.05 2151 0.15 2152 12.4
3/28/24 63.8 1546 37.7 0046 0.00 0.77 9.09 0.122 0.88 438 15.2 1022 44.5 92 33 63.8 37.7 63.9 40.1 6.0 0043 -3.7 1329 0.00 0.00 0 4.4 - 0.0 0.0 3.2 1,166 - - - - - - - 12.4
3/27/24 69.3 1423 33.1 0715 0.00 0.77 9.09 0.149 0.90 536 18.8 1636 42.4 94 33 69.3 33.1 68.8 35.4 5.7 0128 -3.6 1153 0.00 0.00 0 5.0 - 0.0 0.0 7.9 1,163 - - - - - - - 12.3
3/26/24 68.0 1750 33.4 0347 0.00 0.77 9.09 0.137 0.89 557 14.8 1432 42.6 95 48 68.0 33.4 67.9 36.3 7.0 2337 -4.1 1306 0.00 0.00 10 4.7 - 0.0 0.0 9.9 1,155 - - - - - - - 12.4
3/25/24 64.3 1657 34.5 0416 0.00 0.77 9.09 0.125 0.90 470 17.5 1438 42.5 94 36 64.3 34.5 63.8 36.6 7.4 0101 -4.9 1331 0.00 0.00 20 3.9 - 0.0 0.0 9.6 1,145 - - - - - - - 12.3
3/24/24 59.5 1647 34.8 0616 0.00 0.77 9.09 0.107 0.92 439 24.6 1745 40.6 94 51 59.5 34.8 59.1 35.5 7.4 0101 -4.8 1325 0.00 0.00 30 2.2 - 0.0 0.0 10.1 1,136 - - - - - - - 12.3
3/23/24 60.2 1459 36.4 0037 0.00 0.77 9.09 0.100 0.94 422 21.9 1552 44.4 93 56 60.2 36.4 60.3 38.4 6.8 0031 -3.8 1444 0.00 0.00 40 2.3 - 0.0 0.0 4.3 1,126 - - - - - - - 12.4
3/22/24 70.1 1425 42.0 0712 0.00 0.77 9.09 0.136 0.98 507 17.2 1813 48.0 90 40 70.1 42.0 69.4 44.4 5.2 0708 -3.6 1104 0.01 0.00 50 6.3 - 0.0 0.0 2.4 1,121 - - - - - - - 12.4
3/21/24 73.8 1642 34.6 0612 0.00 0.77 9.09 0.141 0.98 520 8.1 1355 41.9 91 29 73.8 34.6 75.9 37.3 8.8 2205 -3.3 1008 4.34 0.00 60 7.4 - 0.0 0.0 10.0 1,119 - - - - - - - 12.3
3/20/24 78.4 1700 37.3 0713 0.00 0.77 9.09 0.147 0.97 524 9.1 1937 44.4 90 32 78.4 37.3 79.0 39.8 8.4 2301 -2.7 1121 6.22 0.00 0 9.4 - 0.0 0.0 7.8 1,109 - - - - - - - 12.3
3/19/24 78.1 1729 38.2 0703 0.00 0.77 9.09 0.145 0.94 520 9.8 1454 47.3 90 42 78.1 38.2 80.4 41.0 9.4 1917 -3.1 1039 6.46 0.00 0 9.8 - 0.0 0.0 7.0 1,101 - - - - - - - 12.4
3/18/24 78.5 1553 36.0 0711 0.00 0.77 9.09 0.145 0.89 512 10.1 1633 45.6 92 34 78.5 36.0 82.6 38.3 10.1 1912 -2.5 1837 6.74 0.00 0 9.5 - 0.0 0.0 7.5 1,094 - - - - - - - 12.4
3/17/24 72.7 1723 36.7 0305 0.00 0.77 9.09 0.129 0.84 499 10.1 1520 44.3 92 41 72.7 36.7 75.7 36.9 10.0 2124 -3.1 1305 2.23 0.00 0 6.5 - 0.0 0.0 10.2 1,087 - - - - - - - 12.4
3/16/24 69.8 1555 32.0 0647 0.00 0.77 9.09 0.136 0.82 495 12.5 1614 38.5 92 28 69.8 32.0 70.6 34.1 10.4 2118 -3.0 1341 0.00 0.00 0 5.8 - 0.0 0.0 11.7 1,076 - - - - - - - 12.3
3/15/24 71.5 1623 31.8 0655 0.00 0.77 9.09 0.135 0.76 514 9.1 1128 36.4 91 24 71.5 31.8 74.2 32.9 9.1 2213 -2.5 1416 1.06 0.00 0 6.0 - 0.3 0.0 11.5 1,065 - - - - - - - 12.3
3/14/24 65.6 1641 31.1 0654 0.00 0.77 9.09 0.136 0.74 514 17.8 1038 35.9 92 28 65.6 31.1 65.5 33.2 8.9 2020 -3.1 1451 0.00 0.00 0 4.4 - 0.3 0.0 13.0 1,053 - - - - - - - 12.2
3/13/24 65.6 1557 37.5 0512 0.00 0.77 9.09 0.109 0.68 427 15.2 1618 43.1 93 51 65.6 37.5 66.8 39.3 8.4 0006 -3.8 1235 0.00 0.00 0 3.3 - 0.0 0.0 9.2 1,040 - - - - - - - 12.4
3/12/24 66.5 1655 40.0 0127 0.00 0.77 9.09 0.100 0.63 388 14.8 2050 46.8 92 56 66.5 40.0 66.7 41.7 4.1 0121 -3.6 1351 0.00 0.00 0 4.6 - 0.0 0.0 6.5 1,031 - - - - - - - 12.3
3/11/24 63.7 1439 34.3 0510 0.00 0.77 9.09 0.099 0.64 416 13.8 1507 43.6 94 61 63.7 34.3 63.6 36.3 5.7 0459 -4.2 1357 0.00 0.00 0 3.5 - 0.0 0.0 11.0 1,025 - - - - - - - 12.4
3/10/24 65.1 1515 36.4 0330 0.00 0.77 9.09 0.108 0.63 439 16.5 1630 42.8 92 54 65.1 36.4 64.8 37.6 6.0 2226 -3.1 1154 0.00 0.00 0 3.5 - 0.0 0.0 11.7 1,013 - - - - - - - 12.3
3/9/24 65.5 1627 35.2 0424 0.00 0.77 9.09 0.079 0.61 327 11.1 1652 43.4 93 55 65.5 35.2 65.7 37.0 8.5 2024 -4.2 1302 0.00 0.00 0 2.9 - 0.0 0.0 12.4 1,002 - - - - - - - 12.4
3/8/24 65.5 1456 34.2 0615 0.00 0.77 9.09 0.115 0.61 473 13.8 1215 42.9 94 53 65.5 34.2 65.6 35.9 7.7 2101 -2.8 1048 0.00 0.00 0 4.4 - 0.0 0.0 10.7 989 - - - - - - - 12.3
3/7/24 62.0 1412 39.2 0001 0.04 0.77 9.09 0.068 0.56 295 15.2 1414 46.0 93 61 62.0 39.2 61.7 43.4 5.8 2021 -4.2 1409 0.00 0.00 0 2.5 - 0.0 0.0 3.4 979 - 0.01 1513 0.03 1513 0.04 1556 12.3
3/6/24 63.2 1315 42.9 0646 0.00 0.73 9.05 0.065 0.56 248 15.5 1448 46.4 92 53 63.2 42.9 63.2 44.2 3.1 0645 -3.2 1127 0.00 0.00 0 2.5 - 0.0 0.0 0.6 975 - - - - - - - 12.5
3/5/24 66.0 1348 33.4 0527 0.00 0.73 9.05 0.113 0.61 458 11.8 1457 42.0 95 45 66.0 33.4 67.3 34.7 5.8 2117 -3.3 1235 0.00 0.00 0 3.9 - 0.0 0.0 9.1 975 - - - - - - - 12.3
3/4/24 59.9 1545 40.0 2326 0.00 0.73 9.05 0.086 0.56 359 11.5 1347 43.1 93 54 59.9 40.0 60.9 41.1 5.6 2058 -4.0 1210 0.00 0.00 0 2.2 - 0.0 0.0 8.4 966 - - - - - - - 12.4
3/3/24 59.7 1537 39.1 0618 0.02 0.73 9.05 0.089 0.54 381 15.5 1641 43.8 94 48 59.7 39.1 59.8 41.7 4.7 0616 -4.0 1238 0.00 0.00 0 1.9 - 0.0 0.0 4.6 957 - - - - - - - 12.4
3/2/24 56.7 1417 46.2 0553 0.47 0.71 9.03 0.075 0.56 357 27.9 1205 46.0 92 57 56.7 46.2 56.6 45.1 1.1 0005 -3.7 1214 0.00 0.00 0 1.2 - 0.0 0.0 0.0 953 - - - - - - - 12.3
3/1/24 60.2 1234 49.5 0001 0.24 0.24 8.56 0.061 0.60 280 26.6 1522 49.7 91 78 60.2 49.5 59.6 49.9 1.3 0425 -2.8 1208 0.00 0.00 0 3.0 - 0.0 0.0 0.0 953 - - - - - - - 12.3
2/29/24 60.4 1445 34.6 0232 0.00 3.27 8.32 0.074 0.63 294 20.9 1238 44.3 93 62 60.4 34.6 60.3 36.3 6.9 0020 -3.3 1146 0.00 0.00 0 2.6 - 0.0 0.0 6.8 953 - - - - - - - 12.3
2/28/24 68.5 1258 36.6 0342 0.00 3.27 8.32 0.115 0.65 439 13.5 1422 43.7 92 49 68.5 36.6 71.3 38.4 8.5 2204 -2.9 1330 0.00 0.00 0 5.5 - 0.0 0.0 11.2 946 - - - - - - - 12.3
2/27/24 61.1 1404 41.0 2322 0.00 3.27 8.32 0.065 0.61 266 15.5 1406 47.1 91 71 61.1 41.0 60.7 44.1 6.2 2212 -3.3 1247 0.00 0.00 0 2.5 - 0.0 0.0 3.0 935 - - - - - - - 12.4
2/26/24 61.8 1356 37.0 0611 0.00 3.27 8.32 0.061 0.63 236 9.1 1247 43.3 91 58 61.8 37.0 61.9 38.1 5.9 0159 -3.2 1350 0.00 0.00 0 3.1 - 0.0 0.0 8.7 932 - - - - - - - 12.3
2/25/24 71.9 1515 34.8 0652 0.00 3.27 8.32 0.114 0.66 429 14.2 1629 43.0 91 38 71.9 34.8 72.6 36.8 7.4 2139 -2.6 0940 0.90 0.00 0 5.5 - 0.0 0.0 11.2 923 - - - - - - - 12.3
2/24/24 72.3 1300 40.7 2359 0.00 3.27 8.32 0.114 0.62 418 11.5 1323 45.2 96 36 72.3 40.7 75.2 42.4 7.8 2220 -3.8 0956 2.30 0.00 0 6.6 - 0.0 0.0 7.8 912 - - - - - - - 12.5
2/23/24 65.4 1516 39.3 0315 0.00 3.27 8.32 0.083 0.54 313 15.8 0953 45.5 92 56 65.4 39.3 64.8 41.0 5.2 0045 -2.7 1259 0.00 0.00 0 4.3 - 0.0 0.0 7.3 904 - - - - - - - 12.4
2/22/24 62.9 1356 37.0 0210 0.00 3.27 8.32 0.095 0.53 399 14.2 1200 43.8 96 56 62.9 37.0 62.9 38.3 7.0 2154 -2.9 1143 0.00 0.00 0 3.4 - 0.0 0.0 11.6 897 - - - - - - - 12.4
2/21/24 61.9 1645 39.1 0533 0.04 3.27 8.32 0.077 0.52 355 11.8 1044 45.2 95 54 61.9 39.1 62.4 41.3 6.8 1933 -3.4 1143 0.00 0.00 0 2.9 - 0.0 0.0 7.6 885 - - - - - - - 12.3
2/20/24 64.5 1413 39.6 0558 0.00 3.23 8.28 0.081 0.48 306 17.2 1413 46.2 94 54 64.5 39.6 64.6 42.3 6.8 0225 -3.3 1256 0.00 0.00 0 4.0 - 0.0 0.0 7.0 877 - - - - - - - 12.4
2/19/24 63.7 1249 44.2 2354 0.69 3.23 8.28 0.093 0.48 361 25.6 1326 50.1 92 57 63.7 44.2 63.5 46.6 7.2 2318 -2.4 1237 0.00 0.00 0 5.9 - 0.0 0.0 0.1 870 - - - - - - - 12.5
2/18/24 67.3 1139 42.6 0647 0.12 2.54 7.59 0.082 0.48 293 20.2 1339 50.8 92 56 67.3 42.6 68.8 44.6 6.4 0551 -3.1 1435 0.00 0.00 0 6.8 - 0.0 0.0 1.3 870 - - - - - - - 12.3
2/17/24 57.6 1143 43.0 0504 0.34 2.42 7.47 0.028 0.48 92 14.2 1308 46.3 90 73 57.6 43.0 57.6 44.6 4.2 0240 -1.3 1127 0.00 0.00 0 1.6 - 0.0 0.0 3.8 869 - - - - - - - 12.4
2/16/24 64.7 1521 39.1 0655 0.00 2.08 7.13 0.072 0.54 286 10.8 1543 45.3 92 55 64.7 39.1 65.0 40.1 5.1 0616 -2.6 1517 0.00 0.00 0 3.8 - 0.0 0.0 8.3 865 - - - - - - - 12.4
2/15/24 65.6 1359 41.8 2347 0.05 2.08 7.13 0.084 0.53 334 13.2 1600 47.4 91 50 65.6 41.8 66.4 44.2 5.1 2353 -3.3 1311 0.00 0.00 0 4.0 - 0.0 0.0 1.4 857 - - - - - - - 12.4
2/14/24 58.0 1432 34.7 0236 0.03 2.03 7.08 0.040 0.51 150 13.8 1744 42.2 91 68 58.0 34.7 57.8 36.2 6.2 0014 -2.1 1430 0.00 0.00 0 1.6 - 0.0 0.0 9.4 855 - - - - - - - 12.4
2/13/24 63.7 1512 30.6 0609 0.00 2.00 7.05 0.085 0.52 372 10.5 1300 38.6 92 45 63.7 30.6 65.8 32.1 7.4 1816 -4.8 1314 0.00 0.00 0 3.0 - 2.1 0.0 13.8 846 - - - - - - - 12.4
2/12/24 64.5 1508 31.2 0429 0.00 2.00 7.05 0.088 0.49 376 10.5 1642 38.7 93 44 64.5 31.2 67.0 32.6 8.5 2042 -2.6 1141 0.00 0.00 0 3.3 - 1.7 0.0 13.2 832 - - - - - - - 12.4
2/11/24 63.5 1536 30.3 0637 0.00 2.00 7.05 0.085 0.44 382 10.1 1222 37.2 93 40 63.5 30.3 66.6 31.7 8.2 2305 -2.9 1224 0.00 0.00 0 2.8 - 1.1 0.0 14.1 819 - - - - - - - 12.3
2/10/24 58.8 1448 31.2 0420 0.00 2.00 7.05 0.082 0.40 374 12.5 1548 36.4 95 44 58.8 31.2 59.6 31.3 7.4 2028 -3.0 1305 0.00 0.00 0 1.5 - 1.4 0.0 15.0 805 - - - - - - - 12.4
2/9/24 56.5 1327 32.1 0628 0.00 2.00 7.05 0.063 0.36 285 10.1 1505 39.3 95 57 56.5 32.1 58.1 33.5 5.8 0947 -3.3 0924 0.00 0.00 0 0.8 - 0.0 0.0 12.5 790 - - - - - - - 12.4
2/8/24 56.6 1355 32.2 0635 0.00 2.00 7.05 0.070 0.36 335 11.1 1222 37.8 95 56 56.6 32.2 56.1 33.2 5.9 1738 -4.1 1349 0.00 0.00 0 0.7 - 0.0 0.0 15.4 778 - - - - - - - 12.3
2/7/24 54.6 1051 36.7 2257 0.38 2.00 7.05 0.044 0.35 186 21.9 1337 41.5 94 66 54.6 36.7 56.1 37.2 4.3 0358 -3.2 1431 0.00 0.00 0 0.5 - 0.0 0.0 14.3 762 - - - - - - - 12.3
2/6/24 57.5 1331 40.9 0321 0.00 1.62 6.67 0.057 0.36 255 16.2 1555 44.6 94 63 57.5 40.9 57.5 41.8 4.2 0129 -3.3 1330 0.00 0.00 0 1.2 - 0.0 0.0 6.0 748 - - - - - - - 12.3
2/5/24 61.0 1226 41.3 0632 0.49 1.62 6.67 0.044 0.38 178 17.5 1242 46.6 94 66 61.0 41.3 60.0 43.4 8.2 0501 -2.4 1227 0.00 0.00 0 1.9 - 0.0 0.0 5.9 742 - - - - - - - 12.3
2/4/24 59.0 1019 47.2 0127 0.54 1.13 6.18 0.037 0.43 95 29.6 1021 49.2 91 72 59.0 47.2 59.9 47.3 2.3 0001 -3.4 1045 0.00 0.00 0 3.2 - 0.0 0.0 0.0 736 - - - - - - - 12.3
2/3/24 56.3 1357 35.0 0525 0.24 0.59 5.64 0.042 0.49 185 10.8 2324 41.4 94 59 56.3 35.0 56.5 36.0 2.9 0333 -2.1 1205 0.00 0.00 0 1.2 - 0.0 0.0 9.5 736 - - - - - - - 12.3
2/2/24 57.5 1504 35.5 0641 0.01 0.35 5.40 0.063 0.51 290 16.5 1538 41.4 95 58 57.5 35.5 57.2 36.7 5.5 1944 -3.9 1151 0.00 0.00 0 1.3 - 0.0 0.0 13.4 726 - - - - - - - 12.3
2/1/24 61.2 1346 43.9 2359 0.34 0.34 5.39 0.064 0.51 250 22.2 0417 48.2 92 63 61.2 43.9 60.5 45.5 2.7 2347 -3.3 1405 0.00 0.00 0 3.4 - 0.0 0.0 0.4 713 - - - - - - - 12.4
1/31/24 63.2 1139 42.7 0145 0.05 0.84 5.05 0.060 0.51 150 19.8 1824 45.0 90 46 63.2 42.7 62.9 44.0 5.6 0012 -2.1 1051 0.00 0.00 - 4.4 - 0.0 0.0 5.9 712 - - - - - - - 12.4
1/30/24 72.2 1405 39.3 0656 0.00 0.79 5.00 0.074 0.47 271 13.8 1415 43.8 91 38 72.2 39.3 73.2 41.1 7.2 1752 -2.9 1051 1.28 0.00 - 5.8 - 0.0 0.0 7.9 707 - - - - - - - 12.3
1/29/24 75.5 1452 39.4 0544 0.00 0.79 5.00 0.095 0.44 324 11.5 1605 44.8 90 33 75.5 39.4 75.3 42.6 9.6 1901 -2.3 1321 4.53 0.00 - 7.0 - 0.0 0.0 6.8 699 - - - - - - - 12.4
1/28/24 75.6 1337 40.9 0652 0.00 0.79 5.00 0.090 0.40 320 12.5 1451 49.7 96 50 75.6 40.9 75.5 43.8 8.1 0652 -2.1 1113 4.93 0.00 - 8.1 - 0.0 0.0 2.6 692 - - - - - - - 12.4
1/27/24 64.9 1317 44.5 0243 0.00 0.79 5.00 0.068 0.34 240 16.5 1246 48.8 91 64 64.9 44.5 64.6 46.6 5.9 0155 -1.9 1124 0.00 0.00 - 5.4 - 0.0 0.0 0.1 689 - - - - - - - 12.5
1/26/24 62.6 1340 38.6 0701 0.00 0.79 5.00 0.063 0.31 259 15.5 1118 46.3 93 65 62.6 38.6 62.2 40.3 6.0 0435 -3.0 1312 0.00 0.00 - 4.0 - 0.0 0.0 6.4 689 - - - - - - - 12.3
1/25/24 63.0 1418 43.3 2314 0.00 0.79 5.00 0.058 0.28 251 9.8 1538 48.5 93 51 63.0 43.3 64.5 46.3 6.8 2248 -2.9 1418 0.00 0.00 - 3.2 - 0.0 0.0 0.6 683 - - - - - - - 12.3
1/24/24 56.2 1447 42.2 0120 0.04 0.79 5.00 0.021 0.27 81 11.8 1100 47.9 93 81 56.2 42.2 55.9 43.5 4.5 0102 -1.5 1436 0.00 0.00 - 2.1 - 0.0 0.0 2.6 682 0.11 0.01 1119 0.03 1121 0.04 1202 12.4
1/23/24 63.3 1402 46.1 0001 0.01 0.75 4.96 0.046 0.28 186 9.8 1105 49.5 94 66 63.3 46.1 66.0 47.2 4.5 1153 -2.7 1103 0.00 0.00 - 3.5 - 0.0 0.0 0.0 680 0.11 0.01 0119 0.01 0133 0.01 0218 12.4
1/22/24 63.3 1311 47.3 2354 0.10 0.74 4.95 0.050 0.30 194 19.2 0320 51.5 93 72 63.3 47.3 63.0 48.5 3.5 0200 -3.3 1140 0.00 0.00 - 4.8 - 0.0 0.0 0.0 680 0.10 0.01 1613 0.07 0817 0.07 0902 12.4
1/21/24 61.2 1429 48.6 0322 0.00 0.64 4.85 0.031 0.29 122 9.1 1424 49.6 93 74 61.2 48.6 61.1 49.2 4.5 1841 -1.5 1211 0.00 0.00 - 2.6 - 0.0 0.0 0.0 680 0.14 - - - - - - 12.4
1/20/24 61.4 1346 49.7 2352 0.13 0.64 4.85 0.039 0.33 131 15.2 1112 51.0 91 71 61.4 49.7 60.8 50.4 1.6 0148 -1.9 1346 0.00 0.00 - 4.9 - 0.0 0.0 0.0 680 0.14 0.01 2153 0.03 2156 0.06 2204 12.4
1/19/24 61.8 1628 42.2 0657 0.01 0.51 4.72 0.035 0.34 116 15.8 1624 46.4 90 51 61.8 42.2 62.8 43.5 3.9 1939 -1.6 1045 0.00 0.00 - 3.6 - 0.0 0.0 6.3 680 - 0.01 2047 0.01 2101 0.01 2146 12.4
1/18/24 62.0 1448 37.6 0208 0.00 0.50 4.71 0.045 0.36 202 15.8 1034 45.2 93 65 62.0 37.6 65.2 39.2 4.5 0703 -2.1 1107 0.00 0.00 - 2.5 - 0.0 0.0 6.3 673 0.10 - - - - - - 12.4
1/17/24 63.6 1443 41.4 2313 0.10 0.50 4.71 0.038 0.38 163 11.8 1525 48.4 91 72 63.6 41.4 68.5 42.7 5.5 1440 -2.4 1248 0.00 0.00 - 2.6 - 0.0 0.0 1.8 667 0.10 0.01 0846 0.04 0311 0.07 0356 12.4
1/16/24 66.7 1536 38.3 0416 0.00 0.40 4.61 0.059 0.40 239 13.8 1538 44.2 96 46 66.7 38.3 67.2 40.6 5.3 2202 -6.2 1053 0.00 0.00 - 3.3 - 0.0 0.0 7.1 665 - - - - - - - 12.4
1/15/24 60.2 1246 36.7 0421 0.00 0.40 4.61 0.047 0.39 192 14.2 1222 43.8 91 68 60.2 36.7 59.5 37.4 6.6 0052 -2.8 1246 0.00 0.00 - 1.8 - 0.0 0.0 7.9 658 - - - - - - - 12.4
1/14/24 64.8 1356 34.3 0041 0.00 0.40 4.61 0.065 0.40 261 10.1 1552 40.6 90 43 64.8 34.3 66.7 34.9 9.6 1852 -2.9 1258 0.00 0.00 - 3.3 - 0.0 0.0 11.4 650 - - - - - - - 12.3
1/13/24 56.1 1358 30.2 0620 0.00 0.40 4.61 0.049 0.40 218 13.2 1436 34.5 92 53 56.1 30.2 57.4 31.4 6.9 1835 -2.9 1349 0.00 0.00 - 0.9 - 2.4 0.0 16.1 639 - - - - - - - 12.4
1/12/24 58.7 1447 24.3 0718 0.00 0.40 4.61 0.063 0.38 276 10.5 1255 30.2 93 24 58.7 24.3 58.7 26.3 7.7 2211 -3.0 1359 0.00 0.00 - 1.1 - 8.2 6.8 16.4 623 - - - - - - - 12.3
1/11/24 55.0 1448 28.6 2328 0.00 0.40 4.61 0.062 0.38 288 26.9 0037 33.7 92 41 55.0 28.6 56.4 31.6 7.0 2142 -3.5 0806 0.00 0.00 - 0.4 - 2.8 0.0 13.6 606 - - - - - - - 12.4
1/10/24 58.2 1414 30.7 0706 0.00 0.40 4.61 0.053 0.37 238 18.2 1413 39.6 93 55 58.2 30.7 58.0 32.2 6.1 0645 -3.4 1418 0.00 0.00 - 0.9 - 0.5 0.0 11.8 593 - - - - - - - 12.4
1/9/24 59.8 1430 27.0 0719 0.00 0.40 4.61 0.056 0.37 276 6.8 1033 34.7 92 44 59.8 27.0 61.9 28.8 8.8 1738 -2.3 1035 0.00 0.00 - 1.6 - 7.3 0.4 14.2 581 - - - - - - - 12.2
1/8/24 57.5 1518 24.5 0622 0.00 0.40 4.61 0.056 0.37 281 10.5 1105 30.4 93 37 57.5 24.5 61.5 26.1 8.2 2106 -2.7 1120 0.00 0.00 - 0.8 - 8.2 5.0 16.9 567 - - - - - - - 12.3
1/7/24 53.5 1425 27.8 2331 0.00 0.40 4.61 0.060 0.36 288 14.2 1546 33.8 93 48 53.5 27.8 54.2 29.2 8.4 1920 -2.9 1356 0.00 0.00 - 0.3 - 3.6 0.1 16.8 550 0.10 - - - - - - 12.3
1/6/24 52.6 1445 30.4 0611 0.10 0.40 4.61 0.033 0.32 158 19.2 1649 39.2 93 71 52.6 30.4 53.4 31.2 4.3 0048 -1.6 1114 0.00 0.00 - 0.3 - 1.6 0.0 12.9 533 0.10 0.01 1957 0.06 1934 0.10 2011 12.4
1/5/24 57.4 1441 36.9 0057 0.00 0.30 4.51 0.058 0.34 271 17.2 1259 41.0 94 65 57.4 36.9 59.4 37.8 5.6 2001 -3.5 1231 0.00 0.00 - 1.3 - 0.0 0.0 13.8 520 - - - - - - - 12.4
1/4/24 57.9 1427 33.5 0204 0.00 0.30 4.51 0.055 0.34 261 10.8 1511 39.1 96 60 57.9 33.5 60.2 34.3 6.7 1229 -2.8 1424 0.00 0.00 - 1.1 - 0.0 0.0 15.3 506 0.30 - - - - - - 12.3
1/3/24 57.2 1350 37.5 0001 0.02 0.30 4.51 0.057 0.33 266 20.2 1420 42.7 93 59 57.2 37.5 57.1 39.6 5.6 2304 -3.8 1235 0.00 0.00 - 1.0 - 0.0 0.0 8.6 491 0.30 0.01 1222 0.01 1236 0.11 0001 12.3
1/2/24 62.0 1517 37.0 0745 0.28 0.28 4.49 0.049 0.32 224 15.5 2204 43.4 94 54 62.0 37.0 61.8 36.4 3.6 1108 -2.6 1149 0.00 0.00 - 2.0 - 0.0 0.0 10.7 482 0.28 0.02 2257 0.16 2303 0.26 2348 12.3
1/1/24 59.2 1441 41.0 0653 0.00 0.00 4.21 0.046 0.31 208 13.8 1043 44.0 92 66 59.2 41.0 59.2 41.9 5.6 0753 -3.2 1259 0.00 0.00 - 1.9 - 0.0 0.0 10.9 472 - - - - - - - 12.3
12/31/23 56.0 1553 43.2 2143 0.00 3.34 4.21 0.023 0.31 88 10.5 1515 47.4 92 79 56.0 43.2 55.7 45.5 4.9 2141 -1.0 1159 0.00 0.00 - 1.5 - 0.0 0.0 0.8 461 0.69 - - - - - - 12.4
12/30/23 61.8 1431 47.7 1913 0.57 3.34 4.21 0.051 0.35 224 13.8 1504 49.0 93 62 61.8 47.7 62.0 48.9 4.0 1905 -3.0 1129 0.00 0.00 - 2.8 - 0.0 0.0 0.0 460 0.69 0.01 1006 0.08 0008 0.16 0542 12.4
12/29/23 65.3 1145 45.0 0326 0.12 2.77 3.64 0.057 0.33 207 22.2 1325 49.5 92 64 65.3 45.0 64.5 46.4 4.4 0111 -2.6 1049 0.00 0.00 - 5.4 - 0.0 0.0 0.0 460 0.12 0.01 0001 0.07 0001 0.10 0001 12.4
12/28/23 67.8 1510 44.1 0506 0.00 2.65 3.52 0.049 0.31 201 9.5 0216 48.6 91 61 67.8 44.1 67.8 45.1 6.4 1920 -2.8 1048 0.00 0.00 - 4.7 - 0.0 0.0 1.3 460 - - - - - - - 12.4
12/27/23 62.1 1438 39.1 0429 0.00 2.65 3.52 0.042 0.28 165 13.5 1324 45.2 90 62 62.1 39.1 62.0 41.2 5.2 0440 -2.7 1413 0.00 0.00 - 2.5 - 0.0 0.0 7.6 459 - - - - - - - 12.3
12/26/23 61.2 1416 36.7 0516 0.00 2.65 3.52 0.040 0.25 177 7.4 1017 42.0 90 57 61.2 36.7 61.1 38.7 6.2 0514 -2.1 1118 0.00 0.00 - 1.9 - 0.0 0.0 12.3 451 - - - - - - - 12.3
12/25/23 64.9 1451 35.0 0501 0.00 2.65 3.52 0.052 0.25 232 10.8 1249 40.8 90 50 64.9 35.0 65.4 35.7 7.0 1818 -2.8 1321 0.00 0.00 - 2.6 - 0.0 0.0 13.0 439 - - - - - - - 12.4
12/24/23 59.5 1414 35.9 0315 0.00 2.65 3.52 0.054 0.24 241 11.8 1142 40.7 92 60 59.5 35.9 59.2 36.4 5.9 2021 -2.6 1133 0.00 0.00 - 2.1 - 0.0 0.0 13.7 426 - - - - - - - 12.3
12/23/23 60.0 1308 39.5 2349 0.00 2.65 3.52 0.039 0.23 170 12.1 1509 45.1 92 70 60.0 39.5 61.5 41.2 6.3 2020 -2.3 1350 0.00 0.00 - 1.7 - 0.0 0.0 4.9 412 - - - - - - - 12.4
12/22/23 65.6 1613 41.1 2348 0.00 2.65 3.52 0.035 0.27 143 8.8 1009 47.8 91 65 65.6 41.1 65.3 43.0 5.6 1713 -2.0 1619 0.00 0.00 - 3.2 - 0.0 0.0 1.4 407 2.65 - - - - - - 12.2
12/21/23 55.0 1348 50.1 0133 0.92 2.65 3.52 0.017 0.32 31 18.5 1105 49.2 90 88 55.0 50.1 55.2 50.3 1.4 0007 -0.5 1106 0.00 0.00 - 2.3 - 0.0 0.0 0.0 406 2.65 0.01 1523 0.12 1009 0.36 1045 12.2
12/20/23 59.2 0908 50.5 1826 1.35 1.73 2.60 0.013 0.37 32 22.5 2116 50.1 91 83 59.2 50.5 60.0 50.1 4.8 0356 -1.4 1250 0.00 0.00 - 3.4 - 0.0 0.0 0.0 406 1.73 0.02 1904 0.12 1909 0.25 1941 12.2
12/19/23 64.5 1253 50.7 2110 0.24 0.38 1.25 0.038 0.42 157 16.8 1352 53.2 90 76 64.5 50.7 64.0 52.6 4.9 2109 -2.3 1251 0.00 0.00 - 7.0 - 0.0 0.0 0.0 406 0.38 0.01 2342 0.04 0330 0.10 0339 12.4
12/18/23 68.3 1229 49.0 0456 0.14 0.14 1.01 0.048 0.46 162 19.8 1235 48.8 88 50 68.3 49.0 67.4 50.4 4.4 0721 -3.3 1313 0.00 0.00 - 6.8 - 0.0 0.0 0.0 406 0.14 0.03 1315 0.04 1329 0.05 1414 12.3
12/17/23 73.0 1347 40.7 0247 0.00 0.00 0.87 0.043 0.49 140 7.1 0349 32.7 66 22 73.0 40.7 74.2 42.4 9.2 1747 -1.6 1323 1.18 0.00 - 5.1 - 0.0 0.0 7.4 406 - - - - - - - 12.4
12/16/23 73.8 1429 32.2 0713 0.00 0.00 0.87 0.078 0.54 262 10.5 1253 30.4 84 17 73.8 32.2 73.7 34.6 12.5 1656 -2.9 1250 3.09 0.00 - 5.8 - 0.0 0.0 9.4 399 - - - - - - - 12.3
12/15/23 75.3 1443 33.8 0651 0.00 0.00 0.87 0.080 0.54 269 11.1 1518 33.6 85 20 75.3 33.8 75.8 36.3 9.4 2329 -2.9 1224 3.41 0.00 - 6.0 - 0.0 0.0 10.7 389 - - - - - - - 12.3
12/14/23 73.4 1410 29.0 0704 0.00 0.00 0.87 0.067 0.53 260 9.8 1759 32.8 90 21 73.4 29.0 74.1 31.0 11.5 1938 -2.3 1408 1.74 0.00 - 5.1 - 3.7 0.0 11.0 379 - - - - - - - 12.3
12/13/23 69.7 1436 28.3 0719 0.00 0.00 0.87 0.065 0.52 271 10.5 1236 33.7 90 30 69.7 28.3 71.5 29.5 9.7 2034 -2.9 1243 0.00 0.00 - 3.8 - 4.6 0.0 14.7 368 - - - - - - - 12.3
12/12/23 64.7 1428 27.9 0637 0.00 0.00 0.87 0.074 0.53 271 12.5 1206 33.5 90 35 64.7 27.9 64.3 30.3 6.4 1852 -3.0 1200 0.00 0.00 - 3.3 - 4.1 0.1 14.3 353 - - - - - - - 12.3
12/11/23 65.1 1201 32.4 0711 0.00 0.00 0.87 0.081 0.54 264 12.8 1305 33.8 87 31 65.1 32.4 64.6 36.7 9.4 0709 -3.4 1242 0.00 0.00 - 3.6 - 0.0 0.0 12.9 338 - - - - - - - 12.3
12/10/23 66.1 1442 35.8 0256 0.00 0.00 0.87 0.093 0.53 254 17.5 1249 32.6 82 26 66.1 35.8 65.9 37.4 7.0 2157 -3.0 1225 0.00 0.00 - 3.8 - 0.0 0.0 9.5 326 - - - - - - - 12.3
12/9/23 61.2 1429 36.8 0630 0.00 0.00 0.87 0.082 0.49 252 18.2 1355 33.7 84 33 61.2 36.8 60.8 39.3 4.9 2023 -3.3 1220 0.00 0.00 - 2.3 - 0.0 0.0 12.2 316 - - - - - - - 12.3
12/8/23 58.1 1334 29.3 0557 0.00 0.00 0.87 0.071 0.46 278 18.8 1221 35.6 92 49 58.1 29.3 57.6 30.6 5.0 0009 -3.1 1303 0.00 0.00 - 1.7 - 4.4 0.0 12.7 304 - - - - - - - 12.2
12/7/23 64.0 1528 34.3 2353 0.00 0.00 0.87 0.056 0.45 246 8.1 1813 41.4 92 47 64.0 34.3 65.8 36.2 9.9 1940 -2.9 1147 0.00 0.00 - 2.7 - 0.0 0.0 6.9 291 - - - - - - - 12.3
12/6/23 68.3 1109 37.6 0507 0.00 0.00 0.87 0.072 0.46 274 21.9 1155 43.6 91 40 68.3 37.6 68.0 39.4 6.0 0639 -3.3 1320 0.00 0.00 - 4.4 - 0.0 0.0 8.4 284 - - - - - - - 12.4
12/5/23 72.2 1319 40.7 0137 0.00 0.00 0.87 0.090 0.45 275 15.8 1400 42.8 89 38 72.2 40.7 72.0 42.3 10.6 2002 -3.0 1228 2.76 0.00 - 6.3 - 0.0 0.0 8.8 276 - - - - - - - 12.3
12/4/23 65.8 1334 40.6 0451 0.00 0.00 0.87 0.067 0.44 248 15.8 1120 45.2 90 56 65.8 40.6 64.9 42.6 6.0 0450 -3.5 1336 0.00 0.00 - 4.4 - 0.0 0.0 5.4 267 - - - - - - - 12.4
12/3/23 62.9 1337 31.8 0645 0.00 0.00 0.87 0.050 0.46 194 12.1 1442 40.6 92 57 62.9 31.8 63.1 32.7 6.6 0031 -2.6 1336 0.00 0.00 - 3.0 - 0.1 0.0 9.0 262 - - - - - - - 12.3
12/2/23 65.1 1411 29.5 0405 0.00 0.00 0.87 0.059 0.50 262 8.8 1236 36.6 92 45 65.1 29.5 66.0 30.5 8.6 1949 -2.5 1237 0.00 0.00 - 3.1 - 4.1 0.0 14.5 253 - - - - - - - 12.2
12/1/23 63.3 1529 30.7 0537 0.00 0.00 0.87 0.055 0.53 266 7.8 0848 36.7 94 41 63.3 30.7 65.1 33.0 10.4 1953 -2.6 1253 0.00 0.00 - 2.2 - 0.2 0.0 15.6 238 - - - - - - - 12.2
11/30/23 63.6 1407 40.1 2357 0.00 0.87 0.87 0.072 0.56 256 20.2 1458 42.5 91 41 63.6 40.1 63.5 41.7 6.3 2351 -3.8 0844 0.00 0.00 - 3.0 - 0.0 0.0 8.8 223 - - - - - - - 12.3
11/29/23 66.3 1353 34.3 0153 0.00 0.87 0.87 0.057 0.56 243 8.4 0941 41.1 90 49 66.3 34.3 68.9 36.2 9.2 2104 -2.6 0956 0.00 0.00 - 3.5 - 0.0 0.0 13.2 214 - - - - - - - 12.4
11/28/23 66.7 1353 29.6 0637 0.00 0.87 0.87 0.079 0.60 281 13.8 1405 33.0 89 25 66.7 29.6 71.0 32.1 10.4 1915 -3.1 1236 0.00 0.00 - 4.0 - 2.1 0.0 14.1 201 - - - - - - - 12.3
11/27/23 66.4 1246 35.1 0642 0.00 0.87 0.87 0.089 0.60 260 15.2 1340 32.2 86 24 66.4 35.1 65.6 39.2 9.0 2044 -3.0 1245 0.00 0.00 - 3.7 - 0.0 0.0 12.3 187 - - - - - - - 12.4
11/26/23 63.8 1343 33.3 0426 0.00 0.87 0.87 0.095 0.61 269 18.5 1411 30.9 86 25 63.8 33.3 63.5 34.1 6.0 2158 -2.9 1247 0.00 0.00 - 3.5 - 0.0 0.0 8.9 174 - - - - - - - 12.2
11/25/23 64.1 1347 28.0 0545 0.00 0.87 0.87 0.083 0.60 301 13.5 1159 31.0 90 28 64.1 28.0 64.6 29.4 9.6 2155 -3.2 1202 0.00 0.00 - 3.1 - 5.4 0.0 12.6 166 - - - - - - - 12.2
11/24/23 62.9 1338 32.4 0544 0.00 0.87 0.87 0.082 0.54 310 13.2 1357 33.3 91 32 62.9 32.4 62.9 34.3 9.6 2113 -2.7 1341 0.00 0.00 - 2.8 - 0.0 0.0 13.6 153 - - - - - - - 12.3
11/23/23 72.8 1333 39.2 0657 0.00 0.87 0.87 0.078 0.54 300 7.4 1856 39.3 89 27 72.8 39.2 77.3 40.7 9.1 2254 -2.5 1312 3.49 0.00 - 6.4 - 0.0 0.0 6.8 139 - - - - - - - 12.4
11/22/23 75.3 1316 35.3 0618 0.00 0.87 0.87 0.093 0.55 297 12.5 1350 37.3 89 17 75.3 35.3 75.2 37.0 9.9 1923 -3.0 0844 3.51 0.00 - 6.9 - 0.0 0.0 8.0 132 - - - - - - - 12.4
11/21/23 74.9 1424 33.5 0623 0.00 0.87 0.87 0.085 0.53 300 10.8 1114 36.4 90 26 74.9 33.5 75.8 34.1 11.0 2044 -3.0 1144 1.73 0.00 - 5.6 - 0.0 0.0 9.6 124 - - - - - - - 12.4
11/20/23 66.1 1421 38.8 2348 0.00 0.87 0.87 0.096 0.53 314 17.2 0336 36.9 89 35 66.1 38.8 65.6 40.0 7.1 0026 -3.3 1315 0.00 0.00 - 3.8 - 0.0 0.0 4.7 115 - - - - - - - 12.4
11/19/23 65.9 1336 43.7 2146 0.00 0.87 0.87 0.087 0.54 317 16.2 1354 42.3 92 28 65.9 43.7 65.6 45.5 8.2 2157 -2.1 1250 0.00 0.00 - 4.4 - 0.0 0.0 0.6 110 0.87 - - - - - - 12.2
11/18/23 62.7 1609 49.0 0001 0.86 0.87 0.87 0.022 0.56 78 12.1 1818 53.4 91 89 62.7 49.0 65.0 50.3 4.1 0002 -0.9 1058 0.00 0.00 - 6.2 - 0.0 0.0 0.0 110 0.87 0.02 1459 0.09 1046 0.19 0608 12.4
11/17/23 74.1 1218 43.1 0607 0.01 0.01 0.01 0.078 0.66 167 24.9 1505 47.4 92 37 74.1 43.1 73.3 43.8 8.4 2135 -3.5 1039 3.34 0.00 - 7.2 - 0.0 0.0 3.1 110 - 0.01 2352 0.01 0001 0.01 0001 12.3
11/16/23 75.3 1243 45.9 2359 0.00 0.00 0.00 0.092 0.69 254 18.5 1352 50.2 91 38 75.3 45.9 74.2 47.9 7.9 2233 -4.0 1115 5.43 0.00 - 10.2 - 0.0 0.0 0.0 106 - - - - - - - 12.3
11/15/23 72.9 1123 37.3 0239 0.00 0.00 0.00 0.074 0.69 99 21.9 1540 40.7 88 20 72.9 37.3 72.4 39.8 12.9 0137 -3.3 1539 1.18 0.00 - 7.6 - 0.0 0.0 4.3 106 - - - - - - - 12.3
11/14/23 72.6 1445 35.2 0624 0.00 0.00 0.00 0.079 0.71 281 10.1 1243 39.5 92 34 72.6 35.2 72.2 35.6 11.6 1926 -3.3 1109 1.77 0.00 - 5.6 - 0.0 0.0 9.7 102 - - - - - - - 12.3
11/13/23 75.6 1322 36.0 0619 0.00 0.00 0.00 0.106 0.73 285 18.8 1425 31.2 91 15 75.6 36.0 74.7 37.8 7.3 2237 -4.1 1154 3.76 0.00 - 6.4 - 0.0 0.0 10.1 92 - - - - - - - 12.3
11/12/23 81.2 1422 32.1 0612 0.00 0.00 0.00 0.114 0.73 333 12.8 1526 28.3 88 9 81.2 32.1 80.9 34.2 14.5 2010 -3.7 1234 5.98 0.00 - 8.6 - 0.0 0.0 11.5 82 - - - - - - - 12.3
11/11/23 72.4 1346 32.8 0600 0.00 0.00 0.00 0.120 0.73 327 15.8 1133 34.6 90 22 72.4 32.8 72.1 35.4 5.8 0017 -3.8 1129 3.34 0.00 - 7.3 - 0.0 0.0 8.3 71 - - - - - - - 12.3
11/10/23 71.7 1430 34.1 0510 0.00 0.00 0.00 0.103 0.71 324 14.2 1154 34.2 90 22 71.7 34.1 71.4 35.1 6.4 2024 -4.0 1113 1.23 0.00 - 5.9 - 0.0 0.0 10.4 63 - - - - - - - 12.2
11/9/23 72.0 1334 30.3 0527 0.00 0.00 0.00 0.094 0.74 320 12.1 1414 35.6 92 22 72.0 30.3 72.1 33.0 8.0 2040 -3.3 1342 2.38 0.00 - 6.2 - 0.9 0.0 10.4 52 - - - - - - - 12.3
11/8/23 70.6 1413 34.0 0612 0.00 0.00 0.00 0.093 0.76 342 14.2 1412 36.6 94 27 70.6 34.0 71.9 34.8 8.9 2037 -3.5 1244 0.30 0.00 - 5.3 - 0.0 0.0 11.7 42 - - - - - - - 12.3
11/7/23 68.4 1357 40.0 2352 0.00 0.00 0.00 0.100 0.80 319 18.5 1447 46.0 93 38 68.4 40.0 67.8 43.6 7.6 2349 -4.4 1131 0.00 0.00 - 6.3 - 0.0 0.0 1.8 30 - - - - - - - 12.3
11/6/23 75.8 1445 46.8 0224